SGN weather

Tan Son Nhat International Airport
Ho Chi Minh City, Ha Tinh Province, Vietnam

Public forecast

Using degrees Celsius for public forecast. Weather courtesy of forecast.io.

Current aviation weather report (METAR) for Tan Son Nhat International Airport

Retrieved 2019/11/14 04:30 UTC (30 minutes ago):

VVTS 140430Z 04004KT 350V120 9999 BKN017 31/23 Q1011 NOSIG

Aviation forecast (TAF) for Tan Son Nhat International Airport

Retrieved 2019-11-14 00:37 UTC (4 hours ago):

TAF VVTS 132300Z 1400/1506 VRB03KT 5000 BR SCT017 SCT040 BECMG 1400/1401 9999 NSW BECMG 1403/1405 10010KT TEMPO 1406/1411 5000 TSRA BKN015 FEW017CB